createdAt,value
2023-04-16T00:01:27.287Z,21.33
2023-04-16T00:03:55.929Z,18.23
2023-04-16T00:06:29.405Z,23.48
2023-04-16T00:08:57.858Z,18.38
2023-04-16T00:11:25.963Z,19.60
2023-04-16T00:13:54.238Z,19.80
2023-04-16T00:16:22.127Z,20.85
2023-04-16T00:18:49.831Z,20.88
2023-04-16T00:21:22.575Z,20.65
2023-04-16T00:23:50.254Z,17.10
2023-04-16T00:26:18.804Z,20.67
2023-04-16T00:28:48.573Z,21.10
2023-04-16T00:31:17.385Z,29.73
2023-04-16T00:33:45.536Z,23.73
2023-04-16T00:36:15.715Z,21.90
2023-04-16T00:38:43.487Z,22.13
2023-04-16T00:41:13.721Z,21.65
2023-04-16T00:43:41.626Z,27.08
2023-04-16T00:46:09.605Z,25.83
2023-04-16T00:48:37.358Z,23.05
2023-04-16T00:51:06.932Z,22.00
2023-04-16T00:53:34.677Z,20.48
2023-04-16T00:56:03.519Z,21.48
2023-04-16T00:58:32.668Z,21.88
2023-04-16T01:01:01.025Z,20.35
2023-04-16T01:03:31.125Z,21.40
2023-04-16T01:05:59.291Z,23.92
2023-04-16T01:08:27.972Z,23.48
2023-04-16T01:10:56.572Z,23.10
2023-04-16T01:13:24.483Z,19.48
2023-04-16T01:15:52.153Z,18.08
2023-04-16T01:18:19.807Z,21.85
2023-04-16T01:20:47.802Z,16.33
2023-04-16T01:23:15.395Z,19.80
2023-04-16T01:25:44.359Z,21.60
2023-04-16T01:28:13.027Z,17.33
2023-04-16T01:30:41.239Z,17.52
2023-04-16T01:33:09.032Z,22.05
2023-04-16T01:35:38.534Z,19.20
2023-04-16T01:38:06.359Z,21.55
2023-04-16T01:40:37.368Z,18.50
2023-04-16T01:43:05.080Z,44.45
2023-04-16T01:45:32.619Z,24.20
2023-04-16T01:48:00.258Z,23.00
2023-04-16T01:50:28.181Z,20.33
2023-04-16T01:52:55.793Z,111.47
2023-04-16T01:55:23.702Z,36.45
2023-04-16T01:57:51.415Z,29.95
2023-04-16T02:00:19.000Z,26.10
2023-04-16T02:02:46.886Z,29.60
2023-04-16T02:05:16.688Z,23.58
2023-04-16T02:07:44.368Z,21.30
2023-04-16T02:10:11.999Z,21.48
2023-04-16T02:12:40.454Z,73.72
2023-04-16T02:15:08.000Z,33.75
2023-04-16T02:17:35.716Z,43.00
2023-04-16T02:20:03.529Z,27.55
2023-04-16T02:22:31.194Z,47.92
2023-04-16T02:24:58.770Z,30.90
2023-04-16T02:27:26.665Z,27.80
2023-04-16T02:29:54.268Z,73.32
2023-04-16T02:32:21.889Z,123.05
2023-04-16T02:34:49.725Z,57.05
2023-04-16T02:37:17.341Z,18.30
2023-04-16T02:39:45.087Z,27.00
2023-04-16T02:42:12.838Z,42.72
2023-04-16T02:44:40.377Z,30.80
2023-04-16T02:47:08.064Z,21.40
2023-04-16T02:49:36.329Z,15.60
2023-04-16T02:52:03.916Z,12.93
2023-04-16T02:54:31.665Z,13.50
2023-04-16T02:57:00.952Z,13.32
2023-04-16T02:59:29.606Z,12.63
2023-04-16T03:01:57.720Z,12.77
2023-04-16T03:04:26.561Z,16.30
2023-04-16T03:06:54.673Z,11.52
2023-04-16T03:09:22.725Z,13.57
2023-04-16T03:11:50.921Z,13.57
2023-04-16T03:14:19.025Z,14.45
2023-04-16T03:16:47.019Z,15.13
2023-04-16T03:19:18.064Z,13.02
2023-04-16T03:21:45.846Z,13.18
2023-04-16T03:24:16.165Z,13.80
2023-04-16T03:26:45.111Z,14.52
2023-04-16T03:29:15.432Z,12.88
2023-04-16T03:31:43.059Z,12.05
2023-04-16T03:34:12.059Z,14.50
2023-04-16T03:36:39.834Z,15.98
2023-04-16T03:39:08.042Z,15.05
2023-04-16T03:41:36.136Z,14.85
2023-04-16T03:44:03.786Z,17.70
2023-04-16T03:46:32.117Z,14.27
2023-04-16T03:49:00.207Z,14.05
2023-04-16T03:51:27.854Z,20.50
2023-04-16T03:53:55.394Z,23.52
2023-04-16T03:56:24.183Z,14.35
2023-04-16T03:58:52.394Z,13.82
2023-04-16T04:01:20.189Z,16.38
2023-04-16T04:03:49.219Z,15.05
2023-04-16T04:06:17.045Z,17.33
2023-04-16T04:08:44.738Z,16.63
2023-04-16T04:11:12.812Z,18.80
2023-04-16T04:13:40.346Z,17.02
2023-04-16T04:16:07.970Z,20.20
2023-04-16T04:18:37.500Z,17.35
2023-04-16T04:21:05.055Z,19.25
2023-04-16T04:23:32.985Z,17.20
2023-04-16T04:26:01.461Z,17.15
2023-04-16T04:28:29.336Z,18.13
2023-04-16T04:30:57.200Z,15.02
2023-04-16T04:33:26.649Z,17.00
2023-04-16T04:35:54.863Z,19.50
2023-04-16T04:38:22.658Z,20.20
2023-04-16T04:40:51.218Z,18.25
2023-04-16T04:43:18.853Z,19.45
2023-04-16T04:45:46.421Z,17.80
2023-04-16T04:48:15.080Z,19.08
2023-04-16T04:50:42.678Z,18.10
2023-04-16T04:53:10.248Z,16.55
2023-04-16T04:55:38.308Z,22.52
2023-04-16T04:58:06.330Z,18.83
2023-04-16T05:00:33.978Z,16.80
2023-04-16T05:03:03.303Z,16.15
2023-04-16T05:05:31.045Z,18.08
2023-04-16T05:07:58.634Z,17.65
2023-04-16T05:10:27.057Z,20.52
2023-04-16T05:12:55.773Z,19.25
2023-04-16T05:15:23.765Z,16.42
2023-04-16T05:17:54.022Z,16.95
2023-04-16T05:20:22.720Z,17.75
2023-04-16T05:22:51.510Z,18.48
2023-04-16T05:25:21.094Z,17.65
2023-04-16T05:27:49.025Z,19.77
2023-04-16T05:30:16.750Z,19.08
2023-04-16T05:32:46.034Z,18.05
2023-04-16T05:35:15.982Z,20.35
2023-04-16T05:37:45.330Z,17.85
2023-04-16T05:40:14.218Z,18.52
2023-04-16T05:42:42.068Z,19.70
2023-04-16T05:45:10.046Z,17.58
2023-04-16T05:47:38.701Z,16.88
2023-04-16T05:50:06.471Z,19.75
2023-04-16T05:52:35.118Z,23.42
2023-04-16T05:55:04.052Z,17.65
2023-04-16T05:57:32.041Z,18.80
2023-04-16T06:00:00.053Z,20.85
2023-04-16T06:02:29.596Z,19.85
2023-04-16T06:04:57.608Z,19.23
2023-04-16T06:07:27.051Z,19.48
2023-04-16T06:09:55.580Z,19.90
2023-04-16T06:12:23.342Z,20.10
2023-04-16T06:14:51.391Z,18.63
2023-04-16T06:17:20.852Z,18.95
2023-04-16T06:19:48.645Z,21.95
2023-04-16T06:22:16.734Z,20.88
2023-04-16T06:24:45.300Z,19.83
2023-04-16T06:27:13.042Z,23.73
2023-04-16T06:29:41.831Z,22.25
2023-04-16T06:32:10.760Z,20.70
2023-04-16T06:34:38.492Z,21.42
2023-04-16T06:37:07.195Z,21.98
2023-04-16T06:39:38.261Z,27.58
2023-04-16T06:42:05.856Z,22.60
2023-04-16T06:44:34.368Z,25.73
2023-04-16T06:47:02.335Z,28.23
2023-04-16T06:49:30.105Z,26.88
2023-04-16T06:51:57.928Z,24.00
2023-04-16T06:54:25.781Z,24.70
2023-04-16T06:56:53.946Z,24.48
2023-04-16T06:59:28.733Z,26.02
2023-04-16T07:01:56.366Z,21.33
2023-04-16T07:04:24.102Z,20.13
2023-04-16T07:06:52.112Z,20.80
2023-04-16T07:09:19.650Z,21.35
2023-04-16T07:11:47.235Z,23.15
2023-04-16T07:14:15.303Z,24.17
2023-04-16T07:16:42.925Z,23.20
2023-04-16T07:19:11.000Z,21.08
2023-04-16T07:21:39.136Z,21.42
2023-04-16T07:24:06.659Z,19.92
2023-04-16T07:26:34.669Z,22.15
2023-04-16T07:29:02.724Z,19.83
2023-04-16T07:31:30.311Z,24.42
2023-04-16T07:33:57.870Z,20.80
2023-04-16T07:36:25.739Z,21.35
2023-04-16T07:38:53.352Z,21.02
2023-04-16T07:41:21.105Z,22.23
2023-04-16T07:43:49.026Z,23.13
2023-04-16T07:46:16.577Z,19.83
2023-04-16T07:48:44.628Z,22.48
2023-04-16T07:51:12.542Z,19.42
2023-04-16T07:53:40.504Z,22.40
2023-04-16T07:56:08.339Z,21.58
2023-04-16T07:58:36.342Z,20.67
2023-04-16T08:01:04.096Z,20.90
2023-04-16T08:03:32.272Z,20.48
2023-04-16T08:06:01.241Z,23.65
2023-04-16T08:08:28.792Z,21.73
2023-04-16T08:10:56.514Z,21.83
2023-04-16T08:13:24.499Z,21.58
2023-04-16T08:15:52.726Z,22.60
2023-04-16T08:18:20.348Z,19.88
2023-04-16T08:20:49.039Z,23.10
2023-04-16T08:23:16.716Z,20.75
2023-04-16T08:25:44.244Z,23.35
2023-04-16T08:28:13.136Z,22.63
2023-04-16T08:30:41.543Z,22.10
2023-04-16T08:33:10.625Z,20.73
2023-04-16T08:35:38.845Z,21.83
2023-04-16T08:38:06.376Z,20.88
2023-04-16T08:40:34.999Z,25.45
2023-04-16T08:43:03.499Z,23.85
2023-04-16T08:45:31.225Z,23.15
2023-04-16T08:47:59.635Z,21.48
2023-04-16T08:50:29.927Z,22.85
2023-04-16T08:52:57.602Z,21.27
2023-04-16T08:55:27.895Z,23.77
2023-04-16T08:57:58.352Z,21.92
2023-04-16T09:00:26.435Z,19.77
2023-04-16T09:02:54.580Z,23.15
2023-04-16T09:05:22.980Z,21.95
2023-04-16T09:07:50.911Z,24.27
2023-04-16T09:10:18.642Z,20.67
2023-04-16T09:12:47.588Z,24.60
2023-04-16T09:15:17.760Z,21.80
2023-04-16T09:17:47.140Z,20.67
2023-04-16T09:20:16.273Z,22.70
2023-04-16T09:22:44.853Z,23.40
2023-04-16T09:25:13.249Z,21.85
2023-04-16T09:27:41.506Z,21.08
2023-04-16T09:30:09.311Z,21.48
2023-04-16T09:32:38.388Z,20.27
2023-04-16T09:35:06.878Z,22.70
2023-04-16T09:37:34.869Z,20.45
2023-04-16T09:40:02.916Z,20.15
2023-04-16T09:42:32.350Z,26.67
2023-04-16T09:45:04.157Z,21.10
2023-04-16T09:47:34.110Z,23.20
2023-04-16T09:50:02.633Z,20.10
2023-04-16T09:52:31.000Z,22.15
2023-04-16T09:55:00.014Z,21.90
2023-04-16T09:57:29.164Z,24.33
2023-04-16T09:59:59.136Z,20.90
2023-04-16T10:02:28.186Z,22.20
2023-04-16T10:04:55.933Z,21.25
2023-04-16T10:07:24.008Z,20.10
2023-04-16T10:09:52.584Z,24.70
2023-04-16T10:12:20.541Z,24.88
2023-04-16T10:14:50.123Z,20.17
2023-04-16T10:17:18.446Z,20.92
2023-04-16T10:19:46.152Z,23.00
2023-04-16T10:22:14.036Z,21.70
2023-04-16T10:24:43.801Z,20.63
2023-04-16T10:27:11.370Z,21.58
2023-04-16T10:29:39.031Z,37.60
2023-04-16T10:32:07.448Z,34.97
2023-04-16T10:34:34.962Z,21.88
2023-04-16T10:37:02.707Z,24.23
2023-04-16T10:39:30.742Z,22.45
2023-04-16T10:41:58.275Z,20.90
2023-04-16T10:44:26.233Z,24.05
2023-04-16T10:46:55.108Z,27.50
2023-04-16T10:49:23.216Z,25.10
2023-04-16T10:51:51.026Z,23.27
2023-04-16T10:54:19.516Z,23.42
2023-04-16T10:56:47.135Z,25.73
2023-04-16T10:59:14.717Z,22.40
2023-04-16T11:01:44.251Z,68.03
2023-04-16T11:04:11.928Z,81.28
2023-04-16T11:06:39.861Z,62.35
2023-04-16T11:09:08.242Z,81.90
2023-04-16T11:11:35.874Z,57.47
2023-04-16T11:14:03.997Z,32.55
2023-04-16T11:16:32.823Z,32.45
2023-04-16T11:19:00.827Z,25.52
2023-04-16T11:21:28.394Z,24.88
2023-04-16T11:23:57.007Z,23.27
2023-04-16T11:26:25.049Z,22.45
2023-04-16T11:28:52.812Z,28.33
2023-04-16T11:31:21.527Z,25.52
2023-04-16T11:33:49.439Z,25.98
2023-04-16T11:36:17.473Z,24.48
2023-04-16T11:38:46.192Z,25.77
2023-04-16T11:41:13.751Z,26.92
2023-04-16T11:43:41.666Z,30.90
2023-04-16T11:46:20.064Z,28.13
2023-04-16T11:48:52.961Z,24.25
2023-04-16T11:51:21.491Z,25.13
2023-04-16T11:53:49.232Z,29.60
2023-04-16T11:56:17.087Z,29.92
2023-04-16T11:58:45.631Z,24.27
2023-04-16T12:01:15.095Z,28.75
2023-04-16T12:03:43.389Z,30.63
2023-04-16T12:06:11.553Z,28.83
2023-04-16T12:08:39.904Z,31.80
2023-04-16T12:11:07.785Z,30.63
2023-04-16T12:13:35.967Z,31.00
2023-04-16T12:16:03.725Z,32.22
2023-04-16T12:18:31.680Z,30.52
2023-04-16T12:21:00.311Z,36.30
2023-04-16T12:23:28.699Z,29.88
2023-04-16T12:25:56.518Z,30.77
2023-04-16T12:28:24.376Z,29.15
2023-04-16T12:30:52.066Z,36.92
2023-04-16T12:33:20.017Z,32.40
2023-04-16T12:35:48.382Z,31.05
2023-04-16T12:38:16.601Z,32.40
2023-04-16T12:40:44.181Z,28.42
2023-04-16T12:43:12.138Z,29.05
2023-04-16T12:45:39.891Z,31.75
2023-04-16T12:48:07.688Z,25.60
2023-04-16T12:50:35.653Z,29.63
2023-04-16T12:53:03.263Z,31.10
2023-04-16T12:55:31.569Z,24.98
2023-04-16T12:58:00.954Z,28.73
2023-04-16T13:00:28.560Z,27.92
2023-04-16T13:02:56.605Z,25.55
2023-04-16T13:05:25.113Z,26.75
2023-04-16T13:07:52.949Z,27.33
2023-04-16T13:10:21.558Z,30.13
2023-04-16T13:12:50.250Z,23.33
2023-04-16T13:15:18.049Z,27.40
2023-04-16T13:17:46.105Z,24.33
2023-04-16T13:20:14.713Z,23.15
2023-04-16T13:22:42.301Z,25.42
2023-04-16T13:25:10.478Z,24.00
2023-04-16T13:27:38.504Z,28.90
2023-04-16T13:30:06.064Z,26.52
2023-04-16T13:32:34.729Z,24.73
2023-04-16T13:35:03.659Z,26.83
2023-04-16T13:37:31.656Z,24.58
2023-04-16T13:39:59.511Z,26.42
2023-04-16T13:42:29.593Z,28.27
2023-04-16T13:44:57.906Z,27.63
2023-04-16T13:47:26.164Z,29.08
2023-04-16T13:49:54.464Z,26.98
2023-04-16T13:52:22.554Z,30.85
2023-04-16T13:54:51.152Z,26.33
2023-04-16T13:57:19.690Z,27.58
2023-04-16T13:59:47.547Z,27.67
2023-04-16T14:02:21.211Z,27.75
2023-04-16T14:04:50.792Z,25.00
2023-04-16T14:07:19.857Z,25.20
2023-04-16T14:09:48.557Z,27.15
2023-04-16T14:12:16.935Z,28.70
2023-04-16T14:14:45.726Z,24.83
2023-04-16T14:17:14.840Z,25.02
2023-04-16T14:19:43.255Z,25.02
2023-04-16T14:22:11.665Z,26.33
2023-04-16T14:24:41.021Z,25.95
2023-04-16T14:27:08.864Z,28.60
2023-04-16T14:29:37.342Z,26.33
2023-04-16T14:32:06.150Z,25.98
2023-04-16T14:34:34.947Z,22.77
2023-04-16T14:37:02.722Z,25.38
2023-04-16T14:39:31.651Z,23.83
2023-04-16T14:41:59.233Z,26.60
2023-04-16T14:44:26.962Z,28.60
2023-04-16T14:46:54.999Z,25.35
2023-04-16T14:49:22.665Z,26.50
2023-04-16T14:51:51.022Z,24.85
2023-04-16T14:54:19.056Z,23.73
2023-04-16T14:56:46.600Z,25.30
2023-04-16T14:59:14.178Z,28.40
2023-04-16T15:01:43.476Z,24.42
2023-04-16T15:04:11.367Z,26.45
2023-04-16T15:06:39.037Z,24.20
2023-04-16T15:09:07.397Z,27.55
2023-04-16T15:11:35.688Z,29.85
2023-04-16T15:14:03.253Z,27.13
2023-04-16T15:16:31.622Z,26.02
2023-04-16T15:18:59.321Z,25.45
2023-04-16T15:21:27.059Z,28.70
2023-04-16T15:23:55.842Z,26.15
2023-04-16T15:26:23.680Z,27.13
2023-04-16T15:28:51.218Z,25.13
2023-04-16T15:31:20.406Z,29.10
2023-04-16T15:33:48.354Z,27.67
2023-04-16T15:36:15.975Z,26.60
2023-04-16T15:38:46.002Z,28.80
2023-04-16T15:41:13.654Z,25.70
2023-04-16T15:43:41.204Z,26.00
2023-04-16T15:46:09.694Z,25.65
2023-04-16T15:48:37.313Z,29.10
2023-04-16T15:51:05.071Z,26.17
2023-04-16T15:53:34.142Z,26.63
2023-04-16T15:56:02.968Z,25.58
2023-04-16T15:58:30.540Z,23.48
2023-04-16T16:00:59.188Z,28.10
2023-04-16T16:03:36.665Z,28.88
2023-04-16T16:06:05.377Z,26.52
2023-04-16T16:08:34.108Z,26.17
2023-04-16T16:11:01.838Z,27.10
2023-04-16T16:13:30.520Z,25.92
2023-04-16T16:15:58.268Z,30.58
2023-04-16T16:18:26.095Z,23.50
2023-04-16T16:20:55.620Z,25.55
2023-04-16T16:23:23.660Z,24.15
2023-04-16T16:25:51.204Z,27.60
2023-04-16T16:28:20.158Z,24.25
2023-04-16T16:30:47.787Z,25.10
2023-04-16T16:33:15.654Z,23.98
2023-04-16T16:35:44.629Z,26.17
2023-04-16T16:38:12.224Z,23.08
2023-04-16T16:43:24.648Z,23.05
2023-04-16T16:45:52.880Z,26.05
2023-04-16T16:48:20.576Z,25.95
2023-04-16T16:50:54.148Z,23.33
2023-04-16T16:53:21.711Z,24.85
2023-04-16T16:55:49.429Z,25.83
2023-04-16T16:58:29.338Z,25.80
2023-04-16T17:00:57.395Z,29.90
2023-04-16T17:03:25.720Z,26.48
2023-04-16T17:05:53.471Z,23.77
2023-04-16T17:08:30.755Z,26.80
2023-04-16T17:10:58.743Z,25.95
2023-04-16T17:13:26.360Z,27.15
2023-04-16T17:15:53.914Z,21.90
2023-04-16T17:18:21.696Z,33.63
2023-04-16T17:20:49.826Z,25.55
2023-04-16T17:23:17.434Z,25.45
2023-04-16T17:25:45.252Z,23.25
2023-04-16T17:28:12.994Z,23.92
2023-04-16T17:30:40.625Z,27.50
2023-04-16T17:33:08.404Z,29.23
2023-04-16T17:35:36.311Z,25.42
2023-04-16T17:38:03.872Z,27.40
2023-04-16T17:40:32.434Z,26.63
2023-04-16T17:43:00.159Z,25.85
2023-04-16T17:45:27.979Z,27.30
2023-04-16T17:47:55.746Z,24.98
2023-04-16T17:50:23.663Z,26.50
2023-04-16T17:52:51.245Z,26.08
2023-04-16T17:55:18.960Z,27.02
2023-04-16T17:57:46.967Z,28.42
2023-04-16T18:00:14.569Z,28.30
2023-04-16T18:02:43.002Z,25.92
2023-04-16T18:05:11.673Z,27.52
2023-04-16T18:07:39.732Z,25.70
2023-04-16T18:10:07.462Z,23.13
2023-04-16T18:12:35.630Z,33.92
2023-04-16T18:15:04.615Z,29.17
2023-04-16T18:17:34.073Z,27.13
2023-04-16T18:20:01.871Z,24.05
2023-04-16T18:22:29.715Z,26.27
2023-04-16T18:24:58.096Z,26.83
2023-04-16T18:27:25.864Z,24.83
2023-04-16T18:29:54.848Z,28.35
2023-04-16T18:32:23.043Z,24.30
2023-04-16T18:34:53.790Z,24.30
2023-04-16T18:37:21.475Z,25.92
2023-04-16T18:39:49.239Z,24.63
2023-04-16T18:42:16.864Z,25.42
2023-04-16T18:44:44.478Z,28.20
2023-04-16T18:47:12.238Z,26.60
2023-04-16T18:49:39.910Z,29.45
2023-04-16T18:52:07.524Z,30.10
2023-04-16T18:54:35.293Z,26.05
2023-04-16T18:57:02.970Z,26.08
2023-04-16T18:59:30.989Z,26.63
2023-04-16T19:01:58.766Z,29.58
2023-04-16T19:04:26.639Z,25.35
2023-04-16T19:06:54.440Z,25.15
2023-04-16T19:09:22.341Z,27.20
2023-04-16T19:11:53.277Z,28.52
2023-04-16T19:14:21.704Z,25.75
2023-04-16T19:16:49.665Z,28.98
2023-04-16T19:19:17.961Z,29.08
2023-04-16T19:21:45.563Z,30.13
2023-04-16T19:24:14.716Z,27.65
2023-04-16T19:26:42.600Z,27.45
2023-04-16T19:29:10.882Z,29.00
2023-04-16T19:31:40.200Z,27.60
2023-04-16T19:34:08.628Z,29.27
2023-04-16T19:36:40.225Z,28.65
2023-04-16T19:39:09.133Z,30.00
2023-04-16T19:41:37.248Z,27.63
2023-04-16T19:44:05.417Z,31.08
2023-04-16T19:46:34.915Z,24.83
2023-04-16T19:49:04.204Z,27.55
2023-04-16T19:51:32.315Z,28.92
2023-04-16T19:54:00.634Z,27.65
2023-04-16T19:56:28.380Z,28.50
2023-04-16T19:58:56.059Z,27.50
2023-04-16T20:01:25.129Z,29.48
2023-04-16T20:03:57.470Z,29.48
2023-04-16T20:06:26.197Z,25.17
2023-04-16T20:08:57.948Z,30.60
2023-04-16T20:11:26.113Z,28.60
2023-04-16T20:13:54.040Z,26.55
2023-04-16T20:16:21.691Z,25.67
2023-04-16T20:18:52.676Z,28.00
2023-04-16T20:21:21.731Z,27.73
2023-04-16T20:23:53.085Z,28.45
2023-04-16T20:26:27.979Z,26.67
2023-04-16T20:29:00.747Z,28.33
2023-04-16T20:31:29.476Z,26.58
2023-04-16T20:34:06.685Z,26.25
2023-04-16T20:36:41.810Z,30.42
2023-04-16T20:39:11.358Z,25.95
2023-04-16T20:41:41.937Z,27.48
2023-04-16T20:46:48.684Z,27.35
2023-04-16T20:49:24.853Z,26.05
2023-04-16T20:52:12.294Z,28.27
2023-04-16T20:54:44.250Z,27.42
2023-04-16T20:57:14.632Z,24.92
2023-04-16T20:59:49.579Z,25.55
2023-04-16T21:02:20.241Z,25.83
2023-04-16T21:04:51.048Z,26.65
2023-04-16T21:07:23.210Z,29.27
2023-04-16T21:09:50.672Z,25.00
2023-04-16T21:12:18.232Z,26.20
2023-04-16T21:15:04.203Z,25.98
2023-04-16T21:17:52.179Z,28.27
2023-04-16T21:20:40.077Z,23.83
2023-04-16T21:23:27.876Z,25.70
2023-04-16T21:26:15.718Z,27.38
2023-04-16T21:29:03.512Z,28.58
2023-04-16T21:31:51.736Z,29.80
2023-04-16T21:34:40.796Z,26.10
2023-04-16T21:37:28.646Z,28.63
2023-04-16T21:40:16.787Z,28.55
2023-04-16T21:43:05.167Z,31.27
2023-04-16T21:45:52.960Z,24.70
2023-04-16T21:48:40.822Z,27.73
2023-04-16T21:51:28.725Z,28.10
2023-04-16T21:54:16.678Z,29.50
2023-04-16T21:57:04.621Z,27.27
2023-04-16T21:59:52.477Z,26.58
2023-04-16T22:02:40.441Z,26.88
2023-04-16T22:05:28.485Z,27.05
2023-04-16T22:08:24.474Z,25.05
2023-04-16T22:11:12.613Z,30.10
2023-04-16T22:14:00.517Z,24.15
2023-04-16T22:16:48.514Z,27.17
2023-04-16T22:19:36.468Z,27.45
2023-04-16T22:22:24.880Z,32.53
2023-04-16T22:25:13.036Z,29.83
2023-04-16T22:28:00.929Z,63.78
2023-04-16T22:30:48.857Z,52.53
2023-04-16T22:33:36.813Z,42.25
2023-04-16T22:36:19.262Z,44.72
2023-04-16T22:39:06.770Z,40.45
2023-04-16T22:41:42.458Z,40.53
2023-04-16T22:44:17.715Z,44.42
2023-04-16T22:46:50.728Z,46.00
2023-04-16T22:49:19.973Z,43.17
2023-04-16T22:51:55.822Z,47.90
2023-04-16T22:54:43.455Z,41.63
2023-04-16T22:57:17.982Z,37.47
2023-04-16T22:59:48.079Z,43.70
2023-04-16T23:02:16.194Z,31.23
2023-04-16T23:04:46.989Z,36.42
2023-04-16T23:07:15.373Z,40.65
2023-04-16T23:10:00.946Z,32.83
2023-04-16T23:12:38.136Z,31.45
2023-04-16T23:15:07.539Z,36.10
2023-04-16T23:17:35.627Z,36.55
2023-04-16T23:20:03.395Z,32.42
2023-04-16T23:22:33.113Z,33.90
2023-04-16T23:25:04.999Z,34.40
2023-04-16T23:27:32.598Z,30.33
2023-04-16T23:30:00.349Z,32.13
2023-04-16T23:32:28.198Z,31.83
2023-04-16T23:34:56.556Z,32.53
2023-04-16T23:37:24.472Z,28.33
2023-04-16T23:39:53.170Z,27.75
2023-04-16T23:42:22.181Z,27.23
2023-04-16T23:44:50.502Z,28.98
2023-04-16T23:47:19.531Z,31.55
2023-04-16T23:49:59.603Z,27.05
2023-04-16T23:52:28.813Z,27.38
2023-04-16T23:54:56.529Z,27.23
2023-04-16T23:57:24.697Z,28.52
2023-04-16T23:59:52.373Z,26.15
